sensor_id;sensor_type;location;lat;lon;timestamp;P1;durP1;ratioP1;P2;durP2;ratioP2
50631;SDS011;49583;45.590;-122.498;2022-11-11T00:00:33;8.50;;;5.40;;
50631;SDS011;49583;45.590;-122.498;2022-11-11T00:03:05;6.30;;;5.50;;
50631;SDS011;49583;45.590;-122.498;2022-11-11T00:05:49;7.70;;;5.90;;
50631;SDS011;49583;45.590;-122.498;2022-11-11T00:08:23;10.10;;;6.80;;
50631;SDS011;49583;45.590;-122.498;2022-11-11T00:11:03;10.80;;;6.30;;
50631;SDS011;49583;45.590;-122.498;2022-11-11T00:13:35;9.30;;;6.00;;
50631;SDS011;49583;45.590;-122.498;2022-11-11T00:16:09;9.60;;;5.00;;
50631;SDS011;49583;45.590;-122.498;2022-11-11T00:18:42;5.90;;;4.40;;
50631;SDS011;49583;45.590;-122.498;2022-11-11T00:21:31;6.80;;;3.80;;
50631;SDS011;49583;45.590;-122.498;2022-11-11T00:24:23;5.20;;;3.50;;
50631;SDS011;49583;45.590;-122.498;2022-11-11T00:27:12;5.90;;;4.00;;
50631;SDS011;49583;45.590;-122.498;2022-11-11T00:29:46;8.00;;;4.50;;
50631;SDS011;49583;45.590;-122.498;2022-11-11T00:32:17;5.80;;;3.90;;
50631;SDS011;49583;45.590;-122.498;2022-11-11T00:34:52;9.50;;;4.20;;
50631;SDS011;49583;45.590;-122.498;2022-11-11T00:37:42;9.90;;;4.40;;
50631;SDS011;49583;45.590;-122.498;2022-11-11T00:40:16;6.10;;;4.30;;
50631;SDS011;49583;45.590;-122.498;2022-11-11T00:42:47;7.20;;;4.60;;
50631;SDS011;49583;45.590;-122.498;2022-11-11T00:45:18;6.90;;;4.60;;
50631;SDS011;49583;45.590;-122.498;2022-11-11T00:47:49;7.20;;;4.40;;
50631;SDS011;49583;45.590;-122.498;2022-11-11T00:50:38;8.40;;;4.40;;
50631;SDS011;49583;45.590;-122.498;2022-11-11T00:53:28;6.40;;;5.00;;
50631;SDS011;49583;45.590;-122.498;2022-11-11T00:56:02;6.20;;;4.30;;
50631;SDS011;49583;45.590;-122.498;2022-11-11T00:58:33;6.10;;;4.70;;
50631;SDS011;49583;45.590;-122.498;2022-11-11T01:01:06;8.00;;;6.10;;
50631;SDS011;49583;45.590;-122.498;2022-11-11T01:03:38;12.20;;;5.90;;
50631;SDS011;49583;45.590;-122.498;2022-11-11T01:06:11;12.30;;;5.60;;
50631;SDS011;49583;45.590;-122.498;2022-11-11T01:08:43;6.50;;;5.50;;
50631;SDS011;49583;45.590;-122.498;2022-11-11T01:11:15;6.80;;;5.10;;
50631;SDS011;49583;45.590;-122.498;2022-11-11T01:13:48;10.20;;;5.20;;
50631;SDS011;49583;45.590;-122.498;2022-11-11T01:16:19;8.90;;;6.10;;
50631;SDS011;49583;45.590;-122.498;2022-11-11T01:18:52;8.20;;;5.80;;
50631;SDS011;49583;45.590;-122.498;2022-11-11T01:21:24;7.80;;;5.20;;
50631;SDS011;49583;45.590;-122.498;2022-11-11T01:23:55;10.00;;;5.30;;
50631;SDS011;49583;45.590;-122.498;2022-11-11T01:26:27;9.30;;;5.20;;
50631;SDS011;49583;45.590;-122.498;2022-11-11T01:28:58;12.30;;;5.20;;
50631;SDS011;49583;45.590;-122.498;2022-11-11T01:31:30;8.60;;;5.10;;
50631;SDS011;49583;45.590;-122.498;2022-11-11T01:36:30;9.10;;;5.40;;
50631;SDS011;49583;45.590;-122.498;2022-11-11T01:39:01;9.30;;;5.60;;
50631;SDS011;49583;45.590;-122.498;2022-11-11T01:41:33;10.10;;;5.70;;
50631;SDS011;49583;45.590;-122.498;2022-11-11T01:44:14;7.20;;;5.10;;
50631;SDS011;49583;45.590;-122.498;2022-11-11T01:47:09;9.50;;;4.70;;
50631;SDS011;49583;45.590;-122.498;2022-11-11T01:49:43;7.20;;;5.10;;
50631;SDS011;49583;45.590;-122.498;2022-11-11T01:52:22;7.60;;;5.80;;
50631;SDS011;49583;45.590;-122.498;2022-11-11T01:54:57;7.70;;;5.20;;
50631;SDS011;49583;45.590;-122.498;2022-11-11T01:57:31;5.90;;;4.30;;
50631;SDS011;49583;45.590;-122.498;2022-11-11T02:00:07;14.70;;;5.50;;
50631;SDS011;49583;45.590;-122.498;2022-11-11T02:02:42;8.30;;;5.20;;
50631;SDS011;49583;45.590;-122.498;2022-11-11T02:05:20;7.50;;;5.00;;
50631;SDS011;49583;45.590;-122.498;2022-11-11T02:08:11;7.90;;;4.70;;
50631;SDS011;49583;45.590;-122.498;2022-11-11T02:10:57;6.50;;;5.50;;
50631;SDS011;49583;45.590;-122.498;2022-11-11T02:13:31;10.00;;;5.30;;
50631;SDS011;49583;45.590;-122.498;2022-11-11T02:16:21;11.20;;;5.60;;
50631;SDS011;49583;45.590;-122.498;2022-11-11T02:18:52;10.80;;;5.40;;
50631;SDS011;49583;45.590;-122.498;2022-11-11T02:21:24;9.60;;;6.30;;
50631;SDS011;49583;45.590;-122.498;2022-11-11T02:24:06;9.50;;;6.50;;
50631;SDS011;49583;45.590;-122.498;2022-11-11T02:26:40;7.90;;;4.90;;
50631;SDS011;49583;45.590;-122.498;2022-11-11T02:29:22;10.20;;;6.00;;
50631;SDS011;49583;45.590;-122.498;2022-11-11T02:31:53;7.50;;;5.50;;
50631;SDS011;49583;45.590;-122.498;2022-11-11T02:34:29;7.00;;;5.40;;
50631;SDS011;49583;45.590;-122.498;2022-11-11T02:37:01;8.30;;;4.70;;
50631;SDS011;49583;45.590;-122.498;2022-11-11T02:39:35;7.60;;;5.40;;
50631;SDS011;49583;45.590;-122.498;2022-11-11T02:42:29;9.30;;;5.70;;
50631;SDS011;49583;45.590;-122.498;2022-11-11T02:45:02;8.20;;;5.60;;
50631;SDS011;49583;45.590;-122.498;2022-11-11T02:47:34;7.30;;;5.60;;
50631;SDS011;49583;45.590;-122.498;2022-11-11T02:50:07;5.90;;;4.20;;
50631;SDS011;49583;45.590;-122.498;2022-11-11T02:52:39;9.60;;;5.50;;
50631;SDS011;49583;45.590;-122.498;2022-11-11T02:55:12;7.40;;;5.20;;
50631;SDS011;49583;45.590;-122.498;2022-11-11T02:57:43;7.10;;;4.90;;
50631;SDS011;49583;45.590;-122.498;2022-11-11T03:00:17;5.30;;;4.50;;
50631;SDS011;49583;45.590;-122.498;2022-11-11T03:02:49;8.90;;;4.10;;
50631;SDS011;49583;45.590;-122.498;2022-11-11T03:05:20;8.20;;;4.30;;
50631;SDS011;49583;45.590;-122.498;2022-11-11T03:07:52;5.80;;;4.10;;
50631;SDS011;49583;45.590;-122.498;2022-11-11T03:10:23;8.30;;;4.80;;
50631;SDS011;49583;45.590;-122.498;2022-11-11T03:12:55;8.80;;;5.40;;
50631;SDS011;49583;45.590;-122.498;2022-11-11T03:15:27;5.20;;;4.60;;
50631;SDS011;49583;45.590;-122.498;2022-11-11T03:17:58;4.80;;;3.80;;
50631;SDS011;49583;45.590;-122.498;2022-11-11T03:20:29;5.30;;;4.00;;
50631;SDS011;49583;45.590;-122.498;2022-11-11T03:23:17;6.00;;;4.10;;
50631;SDS011;49583;45.590;-122.498;2022-11-11T03:25:50;10.20;;;4.10;;
50631;SDS011;49583;45.590;-122.498;2022-11-11T03:28:23;6.60;;;4.30;;
50631;SDS011;49583;45.590;-122.498;2022-11-11T03:30:54;6.30;;;4.10;;
50631;SDS011;49583;45.590;-122.498;2022-11-11T03:33:28;6.30;;;3.70;;
50631;SDS011;49583;45.590;-122.498;2022-11-11T03:35:59;5.90;;;4.10;;
50631;SDS011;49583;45.590;-122.498;2022-11-11T03:38:30;6.40;;;4.40;;
50631;SDS011;49583;45.590;-122.498;2022-11-11T03:41:02;4.00;;;3.50;;
50631;SDS011;49583;45.590;-122.498;2022-11-11T03:43:33;5.00;;;3.90;;
50631;SDS011;49583;45.590;-122.498;2022-11-11T03:46:05;6.10;;;4.30;;
50631;SDS011;49583;45.590;-122.498;2022-11-11T03:48:36;5.90;;;3.60;;
50631;SDS011;49583;45.590;-122.498;2022-11-11T03:51:08;9.10;;;4.00;;
50631;SDS011;49583;45.590;-122.498;2022-11-11T03:53:39;5.30;;;3.80;;
50631;SDS011;49583;45.590;-122.498;2022-11-11T03:56:10;5.60;;;3.40;;
50631;SDS011;49583;45.590;-122.498;2022-11-11T03:58:42;4.70;;;3.10;;
50631;SDS011;49583;45.590;-122.498;2022-11-11T04:01:14;3.90;;;3.30;;
50631;SDS011;49583;45.590;-122.498;2022-11-11T04:03:59;3.30;;;3.00;;
50631;SDS011;49583;45.590;-122.498;2022-11-11T04:06:51;4.20;;;3.10;;
50631;SDS011;49583;45.590;-122.498;2022-11-11T04:09:39;3.80;;;3.40;;
50631;SDS011;49583;45.590;-122.498;2022-11-11T04:12:41;4.30;;;3.10;;
50631;SDS011;49583;45.590;-122.498;2022-11-11T04:15:29;4.90;;;3.40;;
50631;SDS011;49583;45.590;-122.498;2022-11-11T04:18:16;5.30;;;2.80;;
50631;SDS011;49583;45.590;-122.498;2022-11-11T04:23:54;4.40;;;2.90;;
50631;SDS011;49583;45.590;-122.498;2022-11-11T04:28:54;4.20;;;2.90;;
50631;SDS011;49583;45.590;-122.498;2022-11-11T04:31:42;6.20;;;3.50;;
50631;SDS011;49583;45.590;-122.498;2022-11-11T04:34:26;4.10;;;3.20;;
50631;SDS011;49583;45.590;-122.498;2022-11-11T04:36:57;4.50;;;3.30;;
50631;SDS011;49583;45.590;-122.498;2022-11-11T04:39:28;2.60;;;2.40;;
50631;SDS011;49583;45.590;-122.498;2022-11-11T04:42:15;3.90;;;2.60;;
50631;SDS011;49583;45.590;-122.498;2022-11-11T04:44:46;4.10;;;2.80;;
50631;SDS011;49583;45.590;-122.498;2022-11-11T04:47:33;5.20;;;2.50;;
50631;SDS011;49583;45.590;-122.498;2022-11-11T04:50:05;3.90;;;2.70;;
50631;SDS011;49583;45.590;-122.498;2022-11-11T04:52:37;3.90;;;3.10;;
50631;SDS011;49583;45.590;-122.498;2022-11-11T04:55:10;3.80;;;3.20;;
50631;SDS011;49583;45.590;-122.498;2022-11-11T04:57:58;4.40;;;3.10;;
50631;SDS011;49583;45.590;-122.498;2022-11-11T05:00:33;3.20;;;2.90;;
50631;SDS011;49583;45.590;-122.498;2022-11-11T05:03:04;6.40;;;3.50;;
50631;SDS011;49583;45.590;-122.498;2022-11-11T05:05:44;4.70;;;3.30;;
50631;SDS011;49583;45.590;-122.498;2022-11-11T05:08:47;4.70;;;3.30;;
50631;SDS011;49583;45.590;-122.498;2022-11-11T05:11:25;6.40;;;3.00;;
50631;SDS011;49583;45.590;-122.498;2022-11-11T05:13:57;4.60;;;3.30;;
50631;SDS011;49583;45.590;-122.498;2022-11-11T05:16:46;4.70;;;3.10;;
50631;SDS011;49583;45.590;-122.498;2022-11-11T05:19:37;5.70;;;3.60;;
50631;SDS011;49583;45.590;-122.498;2022-11-11T05:22:26;3.80;;;3.20;;
50631;SDS011;49583;45.590;-122.498;2022-11-11T05:24:59;4.30;;;3.90;;
50631;SDS011;49583;45.590;-122.498;2022-11-11T05:27:48;4.50;;;3.40;;
50631;SDS011;49583;45.590;-122.498;2022-11-11T05:30:20;5.10;;;3.80;;
50631;SDS011;49583;45.590;-122.498;2022-11-11T05:32:53;5.90;;;4.10;;
50631;SDS011;49583;45.590;-122.498;2022-11-11T05:35:24;5.30;;;4.10;;
50631;SDS011;49583;45.590;-122.498;2022-11-11T05:37:59;4.70;;;3.50;;
50631;SDS011;49583;45.590;-122.498;2022-11-11T05:40:44;4.60;;;3.30;;
50631;SDS011;49583;45.590;-122.498;2022-11-11T05:43:15;4.20;;;3.80;;
50631;SDS011;49583;45.590;-122.498;2022-11-11T05:45:47;5.80;;;3.60;;
50631;SDS011;49583;45.590;-122.498;2022-11-11T05:48:18;4.70;;;3.60;;
50631;SDS011;49583;45.590;-122.498;2022-11-11T05:50:49;5.00;;;3.70;;
50631;SDS011;49583;45.590;-122.498;2022-11-11T05:53:21;4.20;;;3.10;;
50631;SDS011;49583;45.590;-122.498;2022-11-11T05:55:53;5.10;;;3.70;;
50631;SDS011;49583;45.590;-122.498;2022-11-11T05:58:25;5.90;;;3.70;;
50631;SDS011;49583;45.590;-122.498;2022-11-11T06:00:57;5.60;;;3.30;;
50631;SDS011;49583;45.590;-122.498;2022-11-11T06:03:28;4.70;;;3.30;;
50631;SDS011;49583;45.590;-122.498;2022-11-11T06:05:59;7.40;;;3.30;;
50631;SDS011;49583;45.590;-122.498;2022-11-11T06:08:30;5.60;;;3.90;;
50631;SDS011;49583;45.590;-122.498;2022-11-11T06:11:01;3.20;;;2.90;;
50631;SDS011;49583;45.590;-122.498;2022-11-11T06:13:32;4.60;;;2.80;;
50631;SDS011;49583;45.590;-122.498;2022-11-11T06:16:03;3.70;;;3.40;;
50631;SDS011;49583;45.590;-122.498;2022-11-11T06:18:35;5.10;;;3.40;;
50631;SDS011;49583;45.590;-122.498;2022-11-11T06:21:06;4.50;;;3.40;;
50631;SDS011;49583;45.590;-122.498;2022-11-11T06:23:38;4.70;;;3.50;;
50631;SDS011;49583;45.590;-122.498;2022-11-11T06:28:42;4.80;;;3.30;;
50631;SDS011;49583;45.590;-122.498;2022-11-11T06:31:16;3.60;;;3.30;;
50631;SDS011;49583;45.590;-122.498;2022-11-11T06:33:49;3.80;;;3.20;;
50631;SDS011;49583;45.590;-122.498;2022-11-11T06:38:49;3.60;;;3.20;;
50631;SDS011;49583;45.590;-122.498;2022-11-11T06:41:21;6.30;;;4.90;;
50631;SDS011;49583;45.590;-122.498;2022-11-11T06:43:52;7.90;;;4.60;;
50631;SDS011;49583;45.590;-122.498;2022-11-11T06:46:23;7.70;;;4.90;;
50631;SDS011;49583;45.590;-122.498;2022-11-11T06:48:56;6.10;;;4.80;;
50631;SDS011;49583;45.590;-122.498;2022-11-11T06:51:27;8.00;;;5.40;;
50631;SDS011;49583;45.590;-122.498;2022-11-11T06:53:58;8.70;;;5.30;;
50631;SDS011;49583;45.590;-122.498;2022-11-11T06:56:30;8.80;;;5.90;;
50631;SDS011;49583;45.590;-122.498;2022-11-11T06:59:02;9.70;;;5.90;;
50631;SDS011;49583;45.590;-122.498;2022-11-11T07:01:34;11.50;;;6.60;;
50631;SDS011;49583;45.590;-122.498;2022-11-11T07:04:05;13.60;;;7.30;;
50631;SDS011;49583;45.590;-122.498;2022-11-11T07:06:36;10.10;;;6.80;;
50631;SDS011;49583;45.590;-122.498;2022-11-11T07:09:08;7.40;;;6.30;;
50631;SDS011;49583;45.590;-122.498;2022-11-11T07:14:11;8.40;;;5.60;;
50631;SDS011;49583;45.590;-122.498;2022-11-11T07:16:42;14.30;;;7.00;;
50631;SDS011;49583;45.590;-122.498;2022-11-11T07:19:13;10.40;;;6.50;;
50631;SDS011;49583;45.590;-122.498;2022-11-11T07:21:45;9.40;;;6.10;;
50631;SDS011;49583;45.590;-122.498;2022-11-11T07:24:16;8.90;;;6.40;;
50631;SDS011;49583;45.590;-122.498;2022-11-11T07:26:48;9.50;;;6.70;;
50631;SDS011;49583;45.590;-122.498;2022-11-11T07:29:19;8.10;;;6.20;;
50631;SDS011;49583;45.590;-122.498;2022-11-11T07:31:51;10.90;;;6.70;;
50631;SDS011;49583;45.590;-122.498;2022-11-11T07:34:23;8.60;;;6.60;;
50631;SDS011;49583;45.590;-122.498;2022-11-11T07:36:55;8.10;;;5.20;;
50631;SDS011;49583;45.590;-122.498;2022-11-11T07:39:26;8.80;;;5.70;;
50631;SDS011;49583;45.590;-122.498;2022-11-11T07:41:57;6.40;;;5.30;;
50631;SDS011;49583;45.590;-122.498;2022-11-11T07:44:28;8.10;;;5.60;;
50631;SDS011;49583;45.590;-122.498;2022-11-11T07:46:59;7.90;;;6.00;;
50631;SDS011;49583;45.590;-122.498;2022-11-11T07:49:31;9.60;;;6.20;;
50631;SDS011;49583;45.590;-122.498;2022-11-11T07:52:02;7.10;;;5.70;;
50631;SDS011;49583;45.590;-122.498;2022-11-11T07:54:34;8.70;;;5.80;;
50631;SDS011;49583;45.590;-122.498;2022-11-11T07:57:06;8.80;;;5.50;;
50631;SDS011;49583;45.590;-122.498;2022-11-11T07:59:38;8.50;;;6.20;;
50631;SDS011;49583;45.590;-122.498;2022-11-11T08:02:10;7.60;;;5.60;;
50631;SDS011;49583;45.590;-122.498;2022-11-11T08:04:41;9.40;;;7.00;;
50631;SDS011;49583;45.590;-122.498;2022-11-11T08:07:19;8.40;;;5.60;;
50631;SDS011;49583;45.590;-122.498;2022-11-11T08:09:51;9.80;;;5.90;;
50631;SDS011;49583;45.590;-122.498;2022-11-11T08:12:22;8.80;;;5.70;;
50631;SDS011;49583;45.590;-122.498;2022-11-11T08:15:11;9.90;;;6.30;;
50631;SDS011;49583;45.590;-122.498;2022-11-11T08:17:43;6.90;;;5.30;;
50631;SDS011;49583;45.590;-122.498;2022-11-11T08:20:15;9.00;;;6.90;;
50631;SDS011;49583;45.590;-122.498;2022-11-11T08:22:47;9.50;;;5.90;;
50631;SDS011;49583;45.590;-122.498;2022-11-11T08:25:40;6.90;;;5.50;;
50631;SDS011;49583;45.590;-122.498;2022-11-11T08:28:11;8.30;;;5.60;;
50631;SDS011;49583;45.590;-122.498;2022-11-11T08:30:42;7.80;;;6.50;;
50631;SDS011;49583;45.590;-122.498;2022-11-11T08:33:16;9.20;;;6.00;;
50631;SDS011;49583;45.590;-122.498;2022-11-11T08:35:58;5.90;;;5.00;;
50631;SDS011;49583;45.590;-122.498;2022-11-11T08:38:31;9.90;;;7.30;;
50631;SDS011;49583;45.590;-122.498;2022-11-11T08:41:03;6.20;;;5.40;;
50631;SDS011;49583;45.590;-122.498;2022-11-11T08:43:34;8.10;;;6.40;;
50631;SDS011;49583;45.590;-122.498;2022-11-11T08:46:05;9.40;;;6.00;;
50631;SDS011;49583;45.590;-122.498;2022-11-11T08:48:37;6.40;;;5.00;;
50631;SDS011;49583;45.590;-122.498;2022-11-11T08:51:08;7.60;;;5.40;;
50631;SDS011;49583;45.590;-122.498;2022-11-11T08:53:39;8.80;;;6.20;;
50631;SDS011;49583;45.590;-122.498;2022-11-11T08:56:11;6.40;;;4.90;;
50631;SDS011;49583;45.590;-122.498;2022-11-11T08:58:43;6.00;;;5.30;;
50631;SDS011;49583;45.590;-122.498;2022-11-11T09:01:14;5.90;;;4.70;;
50631;SDS011;49583;45.590;-122.498;2022-11-11T09:03:46;5.50;;;4.00;;
50631;SDS011;49583;45.590;-122.498;2022-11-11T09:06:17;7.90;;;5.20;;
50631;SDS011;49583;45.590;-122.498;2022-11-11T09:08:49;6.20;;;5.30;;
50631;SDS011;49583;45.590;-122.498;2022-11-11T09:11:20;6.50;;;5.10;;
50631;SDS011;49583;45.590;-122.498;2022-11-11T09:13:52;5.60;;;4.60;;
50631;SDS011;49583;45.590;-122.498;2022-11-11T09:16:24;5.70;;;4.50;;
50631;SDS011;49583;45.590;-122.498;2022-11-11T09:18:55;8.60;;;4.50;;
50631;SDS011;49583;45.590;-122.498;2022-11-11T09:21:26;6.40;;;3.80;;
50631;SDS011;49583;45.590;-122.498;2022-11-11T09:23:56;4.40;;;4.00;;
50631;SDS011;49583;45.590;-122.498;2022-11-11T09:26:28;5.00;;;4.40;;
50631;SDS011;49583;45.590;-122.498;2022-11-11T09:28:59;5.40;;;4.50;;
50631;SDS011;49583;45.590;-122.498;2022-11-11T09:31:32;7.50;;;4.90;;
50631;SDS011;49583;45.590;-122.498;2022-11-11T09:34:11;4.80;;;4.20;;
50631;SDS011;49583;45.590;-122.498;2022-11-11T09:36:42;5.40;;;3.90;;
50631;SDS011;49583;45.590;-122.498;2022-11-11T09:39:15;4.80;;;4.10;;
50631;SDS011;49583;45.590;-122.498;2022-11-11T09:41:51;5.30;;;3.90;;
50631;SDS011;49583;45.590;-122.498;2022-11-11T09:44:36;5.80;;;4.40;;
50631;SDS011;49583;45.590;-122.498;2022-11-11T09:47:24;10.10;;;4.40;;
50631;SDS011;49583;45.590;-122.498;2022-11-11T09:50:03;7.20;;;4.50;;
50631;SDS011;49583;45.590;-122.498;2022-11-11T09:52:38;6.30;;;4.40;;
50631;SDS011;49583;45.590;-122.498;2022-11-11T09:55:15;6.10;;;4.00;;
50631;SDS011;49583;45.590;-122.498;2022-11-11T09:57:51;7.90;;;5.10;;
50631;SDS011;49583;45.590;-122.498;2022-11-11T10:00:25;5.20;;;4.30;;
50631;SDS011;49583;45.590;-122.498;2022-11-11T10:03:00;5.30;;;4.40;;
50631;SDS011;49583;45.590;-122.498;2022-11-11T10:05:42;4.80;;;4.30;;
50631;SDS011;49583;45.590;-122.498;2022-11-11T10:08:18;5.20;;;4.70;;
50631;SDS011;49583;45.590;-122.498;2022-11-11T10:10:55;5.20;;;4.50;;
50631;SDS011;49583;45.590;-122.498;2022-11-11T10:13:31;6.80;;;4.00;;
50631;SDS011;49583;45.590;-122.498;2022-11-11T10:16:05;5.00;;;4.00;;
50631;SDS011;49583;45.590;-122.498;2022-11-11T10:18:58;7.80;;;4.20;;
50631;SDS011;49583;45.590;-122.498;2022-11-11T10:21:39;4.00;;;3.60;;
50631;SDS011;49583;45.590;-122.498;2022-11-11T10:24:34;4.30;;;3.70;;
50631;SDS011;49583;45.590;-122.498;2022-11-11T10:27:15;6.80;;;4.10;;
50631;SDS011;49583;45.590;-122.498;2022-11-11T10:29:49;4.40;;;3.70;;
50631;SDS011;49583;45.590;-122.498;2022-11-11T10:32:21;11.70;;;4.00;;
50631;SDS011;49583;45.590;-122.498;2022-11-11T10:34:54;4.60;;;4.00;;
50631;SDS011;49583;45.590;-122.498;2022-11-11T10:37:40;5.50;;;4.20;;
50631;SDS011;49583;45.590;-122.498;2022-11-11T10:40:14;5.90;;;3.90;;
50631;SDS011;49583;45.590;-122.498;2022-11-11T10:42:49;4.80;;;4.30;;
50631;SDS011;49583;45.590;-122.498;2022-11-11T10:45:22;5.40;;;4.10;;
50631;SDS011;49583;45.590;-122.498;2022-11-11T10:47:57;4.40;;;3.90;;
50631;SDS011;49583;45.590;-122.498;2022-11-11T10:50:35;4.70;;;4.30;;
50631;SDS011;49583;45.590;-122.498;2022-11-11T10:53:11;4.50;;;3.70;;
50631;SDS011;49583;45.590;-122.498;2022-11-11T10:55:49;7.70;;;4.60;;
50631;SDS011;49583;45.590;-122.498;2022-11-11T10:58:26;4.30;;;3.70;;
50631;SDS011;49583;45.590;-122.498;2022-11-11T11:01:01;4.80;;;4.00;;
50631;SDS011;49583;45.590;-122.498;2022-11-11T11:03:41;4.10;;;3.70;;
50631;SDS011;49583;45.590;-122.498;2022-11-11T11:06:17;4.40;;;4.00;;
50631;SDS011;49583;45.590;-122.498;2022-11-11T11:08:58;9.20;;;4.40;;
50631;SDS011;49583;45.590;-122.498;2022-11-11T11:11:37;4.80;;;4.10;;
50631;SDS011;49583;45.590;-122.498;2022-11-11T11:14:14;9.00;;;4.60;;
50631;SDS011;49583;45.590;-122.498;2022-11-11T11:16:48;8.40;;;4.10;;
50631;SDS011;49583;45.590;-122.498;2022-11-11T11:19:22;5.40;;;4.00;;
50631;SDS011;49583;45.590;-122.498;2022-11-11T11:21:55;6.60;;;4.50;;
50631;SDS011;49583;45.590;-122.498;2022-11-11T11:24:29;5.00;;;4.50;;
50631;SDS011;49583;45.590;-122.498;2022-11-11T11:27:07;6.20;;;4.20;;
50631;SDS011;49583;45.590;-122.498;2022-11-11T11:29:39;6.30;;;4.50;;
50631;SDS011;49583;45.590;-122.498;2022-11-11T11:32:16;4.20;;;3.80;;
50631;SDS011;49583;45.590;-122.498;2022-11-11T11:34:49;5.20;;;4.60;;
50631;SDS011;49583;45.590;-122.498;2022-11-11T11:37:22;7.40;;;4.30;;
50631;SDS011;49583;45.590;-122.498;2022-11-11T11:42:31;7.20;;;5.00;;
50631;SDS011;49583;45.590;-122.498;2022-11-11T11:45:23;4.60;;;4.10;;
50631;SDS011;49583;45.590;-122.498;2022-11-11T11:48:10;4.80;;;4.30;;
50631;SDS011;49583;45.590;-122.498;2022-11-11T11:50:56;5.30;;;4.20;;
50631;SDS011;49583;45.590;-122.498;2022-11-11T11:53:37;4.70;;;4.30;;
50631;SDS011;49583;45.590;-122.498;2022-11-11T11:56:21;6.30;;;4.30;;
50631;SDS011;49583;45.590;-122.498;2022-11-11T11:59:03;4.30;;;3.90;;
50631;SDS011;49583;45.590;-122.498;2022-11-11T12:01:41;6.10;;;3.80;;
50631;SDS011;49583;45.590;-122.498;2022-11-11T12:07:29;6.60;;;4.40;;
50631;SDS011;49583;45.590;-122.498;2022-11-11T12:10:23;6.80;;;5.10;;
50631;SDS011;49583;45.590;-122.498;2022-11-11T12:13:11;5.50;;;4.40;;
50631;SDS011;49583;45.590;-122.498;2022-11-11T12:15:58;5.80;;;4.60;;
50631;SDS011;49583;45.590;-122.498;2022-11-11T12:18:47;5.50;;;4.20;;
50631;SDS011;49583;45.590;-122.498;2022-11-11T12:21:34;5.10;;;4.60;;
50631;SDS011;49583;45.590;-122.498;2022-11-11T12:24:19;5.90;;;4.60;;
50631;SDS011;49583;45.590;-122.498;2022-11-11T12:27:00;4.70;;;4.10;;
50631;SDS011;49583;45.590;-122.498;2022-11-11T12:29:44;4.60;;;4.00;;
50631;SDS011;49583;45.590;-122.498;2022-11-11T12:32:32;5.50;;;4.60;;
50631;SDS011;49583;45.590;-122.498;2022-11-11T12:35:29;7.30;;;4.60;;
50631;SDS011;49583;45.590;-122.498;2022-11-11T12:38:10;4.90;;;4.40;;
50631;SDS011;49583;45.590;-122.498;2022-11-11T12:41:06;6.10;;;4.10;;
50631;SDS011;49583;45.590;-122.498;2022-11-11T12:43:49;6.50;;;4.60;;
50631;SDS011;49583;45.590;-122.498;2022-11-11T12:46:25;4.20;;;3.90;;
50631;SDS011;49583;45.590;-122.498;2022-11-11T12:49:10;5.20;;;4.20;;
50631;SDS011;49583;45.590;-122.498;2022-11-11T12:51:55;5.70;;;4.20;;
50631;SDS011;49583;45.590;-122.498;2022-11-11T12:54:36;4.40;;;3.90;;
50631;SDS011;49583;45.590;-122.498;2022-11-11T12:57:17;5.30;;;4.60;;
50631;SDS011;49583;45.590;-122.498;2022-11-11T13:00:07;4.70;;;3.10;;
50631;SDS011;49583;45.590;-122.498;2022-11-11T13:02:49;5.70;;;4.10;;
50631;SDS011;49583;45.590;-122.498;2022-11-11T13:05:33;4.40;;;3.90;;
50631;SDS011;49583;45.590;-122.498;2022-11-11T13:11:14;4.80;;;3.70;;
50631;SDS011;49583;45.590;-122.498;2022-11-11T13:13:55;6.20;;;4.50;;
50631;SDS011;49583;45.590;-122.498;2022-11-11T13:16:39;5.40;;;4.50;;
50631;SDS011;49583;45.590;-122.498;2022-11-11T13:19:13;6.60;;;4.30;;
50631;SDS011;49583;45.590;-122.498;2022-11-11T13:21:53;7.00;;;4.70;;
50631;SDS011;49583;45.590;-122.498;2022-11-11T13:24:28;5.30;;;4.30;;
50631;SDS011;49583;45.590;-122.498;2022-11-11T13:27:00;7.40;;;4.20;;
50631;SDS011;49583;45.590;-122.498;2022-11-11T13:32:30;4.90;;;3.90;;
50631;SDS011;49583;45.590;-122.498;2022-11-11T13:35:10;5.30;;;3.50;;
50631;SDS011;49583;45.590;-122.498;2022-11-11T13:37:51;4.40;;;3.70;;
50631;SDS011;49583;45.590;-122.498;2022-11-11T13:40:36;7.20;;;4.10;;
50631;SDS011;49583;45.590;-122.498;2022-11-11T13:43:20;4.60;;;3.40;;
50631;SDS011;49583;45.590;-122.498;2022-11-11T13:45:57;7.30;;;4.20;;
50631;SDS011;49583;45.590;-122.498;2022-11-11T13:48:30;8.60;;;3.80;;
50631;SDS011;49583;45.590;-122.498;2022-11-11T13:51:20;3.10;;;2.90;;
50631;SDS011;49583;45.590;-122.498;2022-11-11T13:53:58;5.10;;;4.00;;
50631;SDS011;49583;45.590;-122.498;2022-11-11T13:56:33;4.60;;;3.40;;
50631;SDS011;49583;45.590;-122.498;2022-11-11T13:59:13;4.80;;;3.80;;
50631;SDS011;49583;45.590;-122.498;2022-11-11T14:02:11;4.40;;;3.60;;
50631;SDS011;49583;45.590;-122.498;2022-11-11T14:07:54;4.40;;;3.60;;
50631;SDS011;49583;45.590;-122.498;2022-11-11T14:13:40;4.40;;;3.80;;
50631;SDS011;49583;45.590;-122.498;2022-11-11T14:16:11;4.00;;;3.60;;
50631;SDS011;49583;45.590;-122.498;2022-11-11T14:19:29;4.00;;;3.20;;
50631;SDS011;49583;45.590;-122.498;2022-11-11T14:22:00;4.30;;;3.80;;
50631;SDS011;49583;45.590;-122.498;2022-11-11T14:24:52;11.10;;;3.70;;
50631;SDS011;49583;45.590;-122.498;2022-11-11T14:27:36;4.40;;;3.90;;
50631;SDS011;49583;45.590;-122.498;2022-11-11T14:30:25;5.00;;;3.30;;
50631;SDS011;49583;45.590;-122.498;2022-11-11T14:33:01;3.90;;;3.40;;
50631;SDS011;49583;45.590;-122.498;2022-11-11T14:35:42;4.60;;;3.80;;
50631;SDS011;49583;45.590;-122.498;2022-11-11T14:38:28;4.70;;;3.30;;
50631;SDS011;49583;45.590;-122.498;2022-11-11T14:47:29;4.70;;;4.00;;
50631;SDS011;49583;45.590;-122.498;2022-11-11T14:50:02;4.20;;;3.50;;
50631;SDS011;49583;45.590;-122.498;2022-11-11T14:52:58;4.60;;;4.00;;
50631;SDS011;49583;45.590;-122.498;2022-11-11T14:55:36;5.70;;;3.30;;
50631;SDS011;49583;45.590;-122.498;2022-11-11T14:58:10;8.80;;;3.70;;
50631;SDS011;49583;45.590;-122.498;2022-11-11T15:00:46;7.70;;;4.10;;
50631;SDS011;49583;45.590;-122.498;2022-11-11T15:03:23;5.20;;;3.50;;
50631;SDS011;49583;45.590;-122.498;2022-11-11T15:05:59;6.30;;;4.60;;
50631;SDS011;49583;45.590;-122.498;2022-11-11T15:08:36;7.40;;;4.90;;
50631;SDS011;49583;45.590;-122.498;2022-11-11T15:11:19;4.80;;;4.30;;
50631;SDS011;49583;45.590;-122.498;2022-11-11T15:16:57;4.60;;;3.80;;
50631;SDS011;49583;45.590;-122.498;2022-11-11T15:19:45;6.10;;;3.90;;
50631;SDS011;49583;45.590;-122.498;2022-11-11T15:22:40;5.30;;;3.80;;
50631;SDS011;49583;45.590;-122.498;2022-11-11T15:25:24;6.50;;;3.80;;
50631;SDS011;49583;45.590;-122.498;2022-11-11T15:28:03;4.50;;;4.00;;
50631;SDS011;49583;45.590;-122.498;2022-11-11T15:30:47;8.50;;;4.10;;
50631;SDS011;49583;45.590;-122.498;2022-11-11T15:33:32;4.60;;;4.20;;
50631;SDS011;49583;45.590;-122.498;2022-11-11T15:36:12;5.50;;;3.80;;
50631;SDS011;49583;45.590;-122.498;2022-11-11T15:38:53;10.40;;;4.30;;
50631;SDS011;49583;45.590;-122.498;2022-11-11T15:41:27;5.80;;;4.00;;
50631;SDS011;49583;45.590;-122.498;2022-11-11T15:44:04;5.90;;;3.60;;
50631;SDS011;49583;45.590;-122.498;2022-11-11T15:46:44;4.50;;;4.00;;